createdAt,value
2022-09-07T00:01:43.401Z,21.1
2022-09-07T00:21:43.421Z,21.2
2022-09-07T00:41:43.345Z,21.3
2022-09-07T01:01:43.359Z,21.2
2022-09-07T01:21:43.311Z,20.7
2022-09-07T01:41:43.278Z,21.0
2022-09-07T02:01:43.269Z,20.9
2022-09-07T02:21:43.223Z,20.4
2022-09-07T02:41:43.274Z,20.0
2022-09-07T03:01:43.184Z,19.7
2022-09-07T03:21:43.200Z,18.9
2022-09-07T03:41:43.123Z,19.2
2022-09-07T04:01:43.115Z,19.0
2022-09-07T04:21:43.152Z,19.0
2022-09-07T04:41:43.048Z,19.2
2022-09-07T05:01:43.029Z,19.0
2022-09-07T05:21:43.005Z,19.2
2022-09-07T05:41:43.004Z,19.2
2022-09-07T06:01:42.947Z,19.2
2022-09-07T06:21:42.952Z,19.5
2022-09-07T06:41:42.901Z,19.8
2022-09-07T07:01:42.879Z,20.2
2022-09-07T07:21:42.842Z,20.7
2022-09-07T07:41:42.832Z,21.0
2022-09-07T08:01:42.907Z,21.4
2022-09-07T08:21:42.788Z,21.8
2022-09-07T08:41:42.822Z,22.5
2022-09-07T09:01:42.732Z,23.2
2022-09-07T09:41:42.692Z,23.8
2022-09-07T10:01:42.649Z,24.6
2022-09-07T10:21:42.645Z,24.8
2022-09-07T10:41:42.601Z,25.2
2022-09-07T11:01:42.601Z,25.9
2022-09-07T11:21:42.566Z,26.3
2022-09-07T11:41:42.512Z,26.9
2022-09-07T12:01:42.487Z,27.2
2022-09-07T13:01:42.441Z,26.6
2022-09-07T13:21:42.378Z,26.7
2022-09-07T13:41:42.360Z,28.1
2022-09-07T14:01:42.327Z,27.6
2022-09-07T14:21:42.375Z,27.5
2022-09-07T14:41:42.278Z,27.1
2022-09-07T15:01:42.245Z,26.8
2022-09-07T15:21:42.240Z,27.1
2022-09-07T15:41:42.210Z,26.9
2022-09-07T16:01:42.178Z,26.5
2022-09-07T16:21:42.214Z,26.1
2022-09-07T16:41:42.192Z,25.6
2022-09-07T17:01:42.144Z,25.3
2022-09-07T17:21:42.146Z,25.1
2022-09-07T17:41:42.045Z,24.5
2022-09-07T18:01:42.054Z,24.3
2022-09-07T18:21:42.047Z,24.2
2022-09-07T18:41:41.973Z,23.9
2022-09-07T19:01:41.945Z,23.6
2022-09-07T19:21:41.904Z,22.8
2022-09-07T19:41:41.912Z,22.6
2022-09-07T20:01:41.846Z,22.2
2022-09-07T20:21:41.875Z,21.4
2022-09-07T20:41:41.807Z,21.4
2022-09-07T21:01:41.787Z,20.7
2022-09-07T21:21:41.748Z,20.9
2022-09-07T21:41:41.736Z,21.1
2022-09-07T22:01:41.787Z,21.0
2022-09-07T22:21:41.674Z,20.3
2022-09-07T22:41:41.640Z,20.3
2022-09-07T23:01:41.619Z,20.4
2022-09-07T23:21:41.635Z,19.8
2022-09-07T23:41:41.565Z,19.7
